| time (UTC) | temp F | wind direction | speed MPH | gust MPH | rain 1hr in | rain 24hr in | rain mn in | humidity % | barometer mb |
| 20260901131529 | 72 | 210 | 6.0 | 15.0 | 0.00 | 0.00 | 0.00 | 60 | 1015.3 |
| 20260901130527 | 71 | 194 | 7.0 | 11.0 | 0.00 | 0.00 | 0.00 | 59 | 1015.2 |
| 20260901125524 | 74 | 152 | 9.0 | 19.0 | 0.00 | 0.00 | 0.00 | 51 | 1015.2 |
| 20260901124522 | 74 | 192 | 10.0 | 19.0 | 0.00 | 0.00 | 0.00 | 51 | 1015.2 |
| 20260901123519 | 72 | 179 | 7.0 | 16.0 | 0.00 | 0.00 | 0.00 | 57 | 1015.1 |
| 20260901122517 | 73 | 140 | 8.0 | 16.0 | 0.00 | 0.00 | 0.00 | 52 | 1015.2 |
| 20260901121549 | 73 | 128 | 8.0 | 20.0 | 0.00 | 0.00 | 0.00 | 55 | 1015.2 |
| 20260901120547 | 72 | 225 | 10.0 | 16.0 | 0.00 | 0.00 | 0.00 | 62 | 1015.1 |
| 20260901115524 | 71 | 144 | 5.0 | 9.0 | 0.00 | 0.00 | 0.00 | 69 | 1015.3 |
| 20260901114522 | 68 | 149 | 5.0 | 8.0 | 0.00 | 0.00 | 0.00 | 72 | 1015.4 |
| 20260901113519 | 66 | 173 | 5.0 | 8.0 | 0.00 | 0.00 | 0.00 | 73 | 1015.5 |
| 20260901112517 | 66 | 90 | 6.0 | 11.0 | 0.00 | 0.00 | 0.00 | 72 | 1015.6 |
| 20260901111515 | 66 | 155 | 9.0 | 15.0 | 0.00 | 0.00 | 0.00 | 71 | 1015.6 |
| 20260901110527 | 67 | 164 | 10.0 | 19.0 | 0.00 | 0.00 | 0.00 | 66 | 1015.3 |
| 20260901105545 | 70 | 173 | 12.0 | 21.0 | 0.00 | 0.00 | 0.00 | 61 | 1015.3 |
| 20260901104522 | 71 | 195 | 7.0 | 14.0 | 0.00 | 0.00 | 0.00 | 61 | 1015.0 |
| 20260901103520 | 71 | 123 | 9.0 | 17.0 | 0.00 | 0.00 | 0.00 | 61 | 1014.9 |
| 20260901102538 | 70 | 200 | 8.0 | 16.0 | 0.00 | 0.00 | 0.00 | 62 | 1014.8 |
| 20260901101515 | 70 | 119 | 7.0 | 14.0 | 0.00 | 0.00 | 0.00 | 64 | 1014.8 |
| 20260901100528 | 68 | 113 | 7.0 | 15.0 | 0.00 | 0.00 | 0.00 | 64 | 1014.8 |
| 20260901095525 | 69 | 226 | 6.0 | 12.0 | 0.00 | 0.00 | 0.00 | 62 | 1014.8 |
| 20260901094522 | 70 | 148 | 7.0 | 12.0 | 0.00 | 0.00 | 0.00 | 62 | 1014.7 |
| 20260901093520 | 70 | 145 | 9.0 | 14.0 | 0.00 | 0.00 | 0.00 | 62 | 1014.7 |
| 20260901092518 | 70 | 181 | 9.0 | 17.0 | 0.00 | 0.00 | 0.00 | 61 | 1014.5 |
| 20260901091515 | 71 | 136 | 8.0 | 17.0 | 0.00 | 0.00 | 0.00 | 62 | 1014.4 |
| 20260901090528 | 69 | 125 | 7.0 | 16.0 | 0.00 | 0.00 | 0.00 | 67 | 1014.5 |
| 20260901085525 | 67 | 150 | 7.0 | 12.0 | 0.00 | 0.00 | 0.00 | 69 | 1014.7 |
| 20260901084523 | 68 | 151 | 7.0 | 15.0 | 0.00 | 0.00 | 0.00 | 66 | 1014.5 |
| 20260901083520 | 69 | 142 | 8.0 | 15.0 | 0.00 | 0.00 | 0.00 | 64 | 1014.4 |
| 20260901082518 | 69 | 202 | 7.0 | 16.0 | 0.00 | 0.00 | 0.00 | 64 | 1014.3 |
| 20260901081515 | 69 | 215 | 7.0 | 15.0 | 0.00 | 0.00 | 0.00 | 64 | 1014.0 |
| 20260901080528 | 69 | 180 | 8.0 | 14.0 | 0.00 | 0.00 | 0.00 | 66 | 1014.0 |
| 20260901075525 | 68 | 110 | 7.0 | 11.0 | 0.00 | 0.00 | 0.00 | 68 | 1013.9 |
| 20260901074523 | 67 | 122 | 9.0 | 17.0 | 0.00 | 0.00 | 0.00 | 70 | 1013.8 |
| 20260901073520 | 66 | 146 | 8.0 | 15.0 | 0.00 | 0.00 | 0.00 | 73 | 1013.7 |
| 20260901072518 | 65 | 143 | 7.0 | 13.0 | 0.00 | 0.00 | 0.00 | 77 | 1013.7 |
| 20260901071516 | 63 | 158 | 7.0 | 14.0 | 0.00 | 0.00 | 0.00 | 81 | 1013.7 |